Time;durP1;ratioP1;P1;durP2;ratioP2;P2;SDS_P1;SDS_P2;PMS_P1;PMS_P2;Temp;Humidity;BMP_temperature;BMP_pressure;BME280_temperature;BME280_humidity;BME280_pressure;Samples;Min_cycle;Max_cycle;Signal;HPM_P1;HPM_P2
2022/02/08 00:00:49;;;;;;;5.22;2.20;;;;;;;4.54;54.56;100871.94;2089270;28;20177;-67
2022/02/08 00:01:59;;;;;;;3.38;1.98;;;;;;;5.05;54.65;100954.91;2080687;28;20209;-67
2022/02/08 00:03:02;;;;;;;5.43;2.13;;;;;;;5.16;55.31;100974.97;2089492;28;20196;-67
2022/02/08 00:04:03;;;;;;;3.40;2.10;;;;;;;5.17;55.18;100982.03;2089954;28;20182;-67
2022/02/08 00:05:06;;;;;;;3.90;2.10;;;;;;;5.02;54.62;100952.16;2089689;28;20177;-68
2022/02/08 00:07:14;;;;;;;5.03;2.15;;;;;;;4.82;54.93;100942.66;2089222;28;20171;-67
2022/02/08 00:08:14;;;;;;;3.00;2.00;;;;;;;5.13;54.17;100978.47;2090169;28;20187;-67
2022/02/08 00:09:16;;;;;;;4.03;1.90;;;;;;;4.81;54.62;100930.09;2089744;28;20199;-67
2022/02/08 00:10:18;;;;;;;4.75;2.17;;;;;;;4.97;54.64;100971.75;2090221;28;20169;-68
2022/02/08 00:11:18;;;;;;;3.85;2.10;;;;;;;4.58;54.59;100907.66;2089059;28;20276;-68
2022/02/08 00:12:19;;;;;;;2.83;1.73;;;;;;;5.20;54.37;101000.50;2088999;28;20169;-67
2022/02/08 00:13:19;;;;;;;3.17;2.03;;;;;;;5.22;53.94;100992.66;2089851;28;20264;-66
2022/02/08 00:14:20;;;;;;;3.70;2.30;;;;;;;5.15;54.33;100989.09;2089885;28;20180;-67
2022/02/08 00:15:21;;;;;;;4.13;2.17;;;;;;;5.26;53.54;100990.72;2088343;28;20610;-68
2022/02/08 00:16:21;;;;;;;4.57;2.10;;;;;;;5.20;54.42;100997.75;2089092;28;20249;-68
2022/02/08 00:17:22;;;;;;;4.00;2.00;;;;;;;5.19;54.12;100998.91;2089353;28;20170;-68
2022/02/08 00:18:22;;;;;;;3.97;1.80;;;;;;;5.20;54.02;101000.50;2090068;28;20183;-67
2022/02/08 00:19:23;;;;;;;3.77;1.67;;;;;;;5.22;53.46;101002.84;2089785;28;20640;-68
2022/02/08 00:20:24;;;;;;;2.30;1.43;;;;;;;5.20;53.92;101010.69;2090071;28;20173;-67
2022/02/08 00:21:24;;;;;;;5.23;2.10;;;;;;;5.01;53.56;100978.84;2089547;28;20184;-68
2022/02/08 00:22:25;;;;;;;3.73;2.20;;;;;;;5.16;54.17;101004.41;2089365;28;20655;-68
2022/02/08 00:23:26;;;;;;;3.33;2.05;;;;;;;3.69;54.21;100784.13;2089797;28;20177;-68
2022/02/08 00:24:27;;;;;;;3.43;1.90;;;;;;;4.94;54.26;100978.81;2089715;28;20183;-68
2022/02/08 00:25:27;;;;;;;5.37;2.00;;;;;;;5.02;53.97;100994.13;2089024;28;20632;-68
2022/02/08 00:26:28;;;;;;;2.73;1.70;;;;;;;5.07;53.93;101009.47;2089352;28;20248;-68
2022/02/08 00:27:29;;;;;;;3.50;1.80;;;;;;;5.01;54.23;101011.78;2089489;28;20204;-68
2022/02/08 00:28:29;;;;;;;3.13;1.70;;;;;;;4.97;54.39;101024.72;2089880;28;20177;-68
2022/02/08 00:29:30;;;;;;;2.80;1.90;;;;;;;5.02;54.17;101018.09;2089619;28;20200;-68
2022/02/08 00:30:30;;;;;;;2.67;1.93;;;;;;;5.00;53.96;101021.22;2089849;28;20647;-68
2022/02/08 00:31:31;;;;;;;3.43;1.83;;;;;;;5.00;53.80;101007.47;2089025;28;20219;-68
2022/02/08 00:32:32;;;;;;;3.43;2.20;;;;;;;4.40;54.53;100935.00;2088677;28;20187;-68
2022/02/08 00:33:32;;;;;;;3.03;1.90;;;;;;;4.90;54.58;101015.66;2089485;28;20616;-68
2022/02/08 00:34:33;;;;;;;2.73;2.00;;;;;;;3.49;54.98;100805.50;2089814;28;20197;-68
2022/02/08 00:35:34;;;;;;;2.83;1.97;;;;;;;4.88;54.71;101023.50;2088973;28;20188;-68
2022/02/08 00:36:34;;;;;;;4.20;2.40;;;;;;;4.71;55.41;101002.19;2088885;28;20181;-68
2022/02/08 00:37:35;;;;;;;4.27;2.00;;;;;;;4.80;55.09;101013.63;2089448;28;20181;-67
2022/02/08 00:38:36;;;;;;;5.23;2.00;;;;;;;4.85;55.18;101008.59;2089739;28;20176;-67
2022/02/08 00:39:37;;;;;;;3.20;2.00;;;;;;;4.83;54.19;101002.66;2089939;28;20192;-67
2022/02/08 00:40:38;;;;;;;3.80;2.00;;;;;;;4.35;54.44;100976.50;2089729;28;20722;-67
2022/02/08 00:41:39;;;;;;;3.07;1.93;;;;;;;4.82;54.98;100995.59;2089286;28;20204;-67
2022/02/08 00:42:40;;;;;;;3.22;2.03;;;;;;;4.71;54.57;100997.50;2088845;28;20199;-67
2022/02/08 00:43:56;;;;;;;3.07;2.10;;;;;;;4.77;54.66;101017.94;2089602;28;20638;-67
2022/02/08 00:45:24;;;;;;;2.92;2.00;;;;;;;4.37;54.69;100971.41;2088581;28;20179;-67
2022/02/08 00:47:37;;;;;;;1.95;1.55;;;;;;;4.65;55.34;101036.69;2089258;28;20661;-67
2022/02/08 00:48:41;;;;;;;4.95;1.90;;;;;;;4.69;55.22;101032.00;2089613;28;20634;-67
2022/02/08 00:49:43;;;;;;;4.57;1.90;;;;;;;4.72;54.76;101021.03;2089631;28;20189;-67
2022/02/08 00:50:49;;;;;;;4.35;2.28;;;;;;;4.30;54.76;100957.66;2089493;28;20721;-67
2022/02/08 00:51:56;;;;;;;3.97;2.08;;;;;;;4.78;54.92;101035.22;2089084;28;20157;-67
2022/02/08 00:52:57;;;;;;;4.82;2.10;;;;;;;4.72;54.64;101048.50;2089637;28;20172;-67
2022/02/08 00:53:57;;;;;;;2.23;1.70;;;;;;;4.75;55.00;101053.25;2089708;28;20181;-67
2022/02/08 00:54:58;;;;;;;3.07;2.13;;;;;;;4.76;54.60;101043.81;2089657;28;20260;-67
2022/02/08 00:55:58;;;;;;;3.90;2.07;;;;;;;4.76;54.84;101054.81;2089053;28;20651;-67
2022/02/08 00:56:59;;;;;;;3.00;1.90;;;;;;;4.74;54.79;101057.16;2088937;28;20259;-67
2022/02/08 00:58:00;;;;;;;2.87;1.90;;;;;;;4.71;54.76;101060.66;2089545;28;20173;-67
2022/02/08 00:59:00;;;;;;;4.87;2.10;;;;;;;4.66;55.52;101052.78;2089482;28;20666;-67
2022/02/08 01:00:02;;;;;;;4.07;2.43;;;;;;;4.65;55.13;101053.16;2089669;28;20176;-67
2022/02/08 01:01:03;;;;;;;3.35;2.20;;;;;;;4.64;55.13;101063.34;2089530;28;20263;-67
2022/02/08 01:02:06;;;;;;;3.10;2.07;;;;;;;4.61;54.71;101060.59;2089101;28;20196;-67
2022/02/08 01:03:08;;;;;;;4.53;2.30;;;;;;;4.58;55.56;101055.84;2089479;28;20704;-67
2022/02/08 01:04:11;;;;;;;2.90;1.98;;;;;;;4.57;55.68;101051.53;2089576;28;20176;-67
2022/02/08 01:05:13;;;;;;;5.13;2.22;;;;;;;4.61;55.48;101057.84;2088713;28;20600;-67
2022/02/08 01:06:16;;;;;;;4.05;2.38;;;;;;;4.50;55.43;101037.75;2089152;28;20225;-67
2022/02/08 01:07:16;;;;;;;3.92;2.40;;;;;;;4.25;55.33;101020.34;2088741;28;20176;-67
2022/02/08 01:08:19;;;;;;;3.60;2.13;;;;;;;4.61;55.59;101075.09;2089052;28;20201;-67
2022/02/08 01:09:26;;;;;;;5.15;2.53;;;;;;;4.61;54.75;101061.38;2088729;28;20246;-67
2022/02/08 01:10:34;;;;;;;3.22;1.80;;;;;;;4.58;54.92;101064.88;2089686;28;20149;-67
2022/02/08 01:11:34;;;;;;;2.75;1.95;;;;;;;4.58;55.52;101077.81;2089413;28;20215;-67
2022/02/08 01:12:35;;;;;;;3.43;2.00;;;;;;;4.57;55.06;101054.28;2088799;28;20180;-67
2022/02/08 01:13:38;;;;;;;3.58;2.13;;;;;;;4.60;55.35;101059.00;2089418;28;20172;-67
2022/02/08 01:14:41;;;;;;;2.80;1.73;;;;;;;4.56;55.06;101069.97;2089371;28;20231;-67
2022/02/08 01:15:42;;;;;;;6.85;2.10;;;;;;;4.57;54.97;101074.28;2088829;28;20172;-67
2022/02/08 01:16:43;;;;;;;3.53;1.93;;;;;;;4.63;55.02;101064.53;2088561;28;20187;-67
2022/02/08 01:17:47;;;;;;;4.25;2.00;;;;;;;4.63;54.60;101072.78;2089481;28;20180;-67
2022/02/08 01:18:52;;;;;;;4.40;2.17;;;;;;;4.57;54.37;101054.28;2089367;28;20709;-67
2022/02/08 01:20:02;;;;;;;2.80;2.20;;;;;;;4.54;54.67;101055.03;2089567;28;20161;-67
2022/02/08 01:21:03;;;;;;;4.32;2.22;;;;;;;4.52;54.83;101063.66;2089399;28;20251;-67
2022/02/08 01:22:03;;;;;;;4.95;2.00;;;;;;;4.51;54.74;101067.56;2088886;28;20204;-67
2022/02/08 01:23:07;;;;;;;4.10;2.00;;;;;;;4.41;55.40;101073.00;2088662;28;20204;-67
2022/02/08 01:24:08;;;;;;;3.17;2.08;;;;;;;4.41;54.83;101051.03;2088892;28;20201;-67
2022/02/08 01:25:17;;;;;;;4.60;1.87;;;;;;;3.24;54.41;100875.72;2088760;28;20337;-67
2022/02/08 01:26:19;;;;;;;4.13;2.00;;;;;;;4.44;54.62;101066.72;2088280;28;20222;-67
2022/02/08 01:27:24;;;;;;;4.00;2.13;;;;;;;4.58;54.35;101064.09;2088539;28;20256;-67
2022/02/08 01:32:01;;;;;;;2.55;1.70;;;;;;;4.68;54.19;101074.38;2088885;28;20194;-67
2022/02/08 01:34:27;;;;;;;3.17;2.10;;;;;;;3.77;54.25;100936.47;2089212;28;20624;-67
2022/02/08 01:35:44;;;;;;;4.60;1.85;;;;;;;4.56;54.96;101080.16;2088692;28;20183;-67
2022/02/08 01:37:03;;;;;;;4.43;2.15;;;;;;;4.52;54.19;101066.38;2088388;28;20518;-67
2022/02/08 01:38:13;;;;;;;3.42;2.20;;;;;;;4.41;54.62;101059.28;2089214;28;20165;-67
2022/02/08 01:39:34;;;;;;;4.60;2.40;;;;;;;4.45;54.22;101057.31;2089151;28;20161;-67
2022/02/08 01:41:54;;;;;;;2.50;1.97;;;;;;;4.45;54.71;101080.06;2089096;28;20199;-67
2022/02/08 01:46:25;;;;;;;3.65;2.00;;;;;;;4.14;54.32;101016.69;2088814;28;20270;-67
2022/02/08 01:48:51;;;;;;;3.20;1.87;;;;;;;4.47;53.92;101093.41;2089234;28;20646;-67
2022/02/08 01:51:07;;;;;;;2.60;1.80;;;;;;;4.51;54.35;101091.50;2089207;28;20165;-67
2022/02/08 01:52:07;;;;;;;3.75;1.80;;;;;;;3.78;54.38;100965.47;2088760;28;20617;-67
2022/02/08 01:53:09;;;;;;;3.00;2.10;;;;;;;4.03;54.19;101026.78;2088936;28;20183;-67
2022/02/08 01:54:09;;;;;;;2.97;1.80;;;;;;;4.53;54.67;101084.47;2089230;28;20185;-67
2022/02/08 01:55:12;;;;;;;2.17;1.57;;;;;;;3.93;53.97;101005.53;2088497;28;20681;-67
2022/02/08 01:56:14;;;;;;;2.90;1.90;;;;;;;4.52;54.40;101107.56;2088984;28;20165;-67
2022/02/08 01:57:14;;;;;;;2.60;1.80;;;;;;;4.56;53.84;101096.63;2087668;28;20190;-67
2022/02/08 01:58:15;;;;;;;4.27;1.60;;;;;;;4.55;53.67;101106.81;2088759;28;20196;-67
2022/02/08 01:59:16;;;;;;;2.80;1.87;;;;;;;3.11;53.00;100877.16;2089003;28;20557;-67
2022/02/08 02:00:19;;;;;;;4.20;1.70;;;;;;;4.51;53.59;101097.00;2089337;28;20226;-67
2022/02/08 02:01:19;;;;;;;2.13;1.60;;;;;;;4.40;53.43;101096.88;2088787;28;20180;-67
2022/02/08 02:02:20;;;;;;;3.23;1.70;;;;;;;4.47;53.97;101105.16;2088726;28;20255;-67
2022/02/08 02:03:21;;;;;;;2.97;2.00;;;;;;;4.53;53.04;101106.41;2088966;28;20178;-67
2022/02/08 02:04:23;;;;;;;3.73;1.80;;;;;;;4.16;53.28;101052.78;2088615;28;20184;-67
2022/02/08 02:05:23;;;;;;;2.13;1.50;;;;;;;4.52;53.30;101142.47;2087695;28;20223;-67
2022/02/08 02:06:24;;;;;;;1.93;1.60;;;;;;;4.47;53.68;101134.59;2088640;28;20803;-67
2022/02/08 02:07:25;;;;;;;2.83;1.70;;;;;;;4.45;53.02;101125.91;2088490;28;20185;-67
2022/02/08 02:08:25;;;;;;;2.90;1.70;;;;;;;4.47;53.34;101123.59;2089260;28;20633;-67
2022/02/08 02:09:26;;;;;;;2.53;1.60;;;;;;;4.43;53.29;101120.84;2088879;28;20173;-67
2022/02/08 02:10:27;;;;;;;3.10;1.80;;;;;;;4.47;53.39;101118.13;2089362;28;20423;-67
2022/02/08 02:11:27;;;;;;;1.97;1.50;;;;;;;4.46;53.14;101116.53;2088991;28;20267;-67
2022/02/08 02:12:28;;;;;;;4.20;1.97;;;;;;;4.47;52.95;101104.38;2088719;28;20172;-67
2022/02/08 02:14:35;;;;;;;5.33;1.70;;;;;;;4.41;52.67;101127.88;2089178;28;20187;-67
2022/02/08 02:15:35;;;;;;;3.08;1.70;;;;;;;4.46;52.68;101125.56;2088342;28;20176;-67
2022/02/08 02:16:53;;;;;;;3.30;1.87;;;;;;;4.34;52.45;101106.63;2088108;28;20658;-67
2022/02/08 02:17:55;;;;;;;2.83;1.58;;;;;;;4.48;53.11;101139.69;2089132;28;20379;-67
2022/02/08 02:18:56;;;;;;;3.47;1.60;;;;;;;4.49;52.73;101124.00;2088944;28;20975;-67
2022/02/08 02:19:56;;;;;;;2.60;1.87;;;;;;;4.47;52.56;101129.88;2089103;28;20588;-67
2022/02/08 02:20:57;;;;;;;2.03;1.63;;;;;;;4.04;52.43;101105.94;2088992;28;20234;-67
2022/02/08 02:21:59;;;;;;;1.97;1.63;;;;;;;4.46;52.10;101135.75;2088608;28;20205;-67
2022/02/08 02:23:00;;;;;;;2.83;1.85;;;;;;;4.41;52.65;101144.34;2088970;28;20180;-67
2022/02/08 02:24:00;;;;;;;2.53;1.73;;;;;;;4.41;52.10;101144.34;2089004;28;20246;-67
2022/02/08 02:25:01;;;;;;;2.77;1.70;;;;;;;4.43;52.12;101142.00;2088997;28;20193;-67
2022/02/08 02:26:02;;;;;;;2.63;1.93;;;;;;;4.44;51.80;101138.06;2088328;28;20320;-67
2022/02/08 02:27:04;;;;;;;2.33;1.50;;;;;;;4.46;51.96;101163.19;2088326;28;20181;-67
2022/02/08 02:28:06;;;;;;;3.30;1.98;;;;;;;4.45;52.01;101154.16;2088371;28;20660;-67
2022/02/08 02:29:07;;;;;;;1.77;1.40;;;;;;;4.26;51.44;101123.41;2088316;28;20702;-67
2022/02/08 02:30:08;;;;;;;2.83;1.93;;;;;;;4.38;51.70;101145.88;2089041;28;20199;-67
2022/02/08 02:31:09;;;;;;;2.25;1.55;;;;;;;4.47;51.81;101162.78;2088768;28;20172;-67
2022/02/08 02:32:09;;;;;;;4.00;1.70;;;;;;;4.47;51.83;101160.06;2088779;28;20181;-67
2022/02/08 02:33:11;;;;;;;2.80;1.60;;;;;;;4.32;51.38;101136.38;2088614;28;20703;-67
2022/02/08 02:34:15;;;;;;;2.40;1.60;;;;;;;4.53;51.70;101155.03;2089212;28;20990;-67
2022/02/08 02:35:16;;;;;;;3.17;1.90;;;;;;;4.52;51.20;101167.94;2088408;28;20185;-67
2022/02/08 02:36:17;;;;;;;2.60;1.63;;;;;;;4.47;51.60;101154.56;2088624;28;20658;-67
2022/02/08 02:37:18;;;;;;;3.57;1.90;;;;;;;3.84;51.17;101068.91;2088210;28;20673;-67
2022/02/08 02:38:22;;;;;;;2.95;1.73;;;;;;;4.11;51.16;101122.47;2088444;28;20176;-67
2022/02/08 02:39:25;;;;;;;2.67;1.90;;;;;;;4.41;51.85;101169.03;2089806;28;20200;-67
2022/02/08 02:40:28;;;;;;;2.75;1.40;;;;;;;4.36;51.12;101150.16;2090821;28;20173;-67
2022/02/08 02:41:35;;;;;;;3.15;1.55;;;;;;;4.43;51.20;101167.50;2090425;28;20185;-67
2022/02/08 02:42:35;;;;;;;3.05;1.98;;;;;;;4.43;51.29;101174.91;2090362;28;20615;-67
2022/02/08 02:43:36;;;;;;;2.93;1.77;;;;;;;4.35;51.71;101178.75;2090677;28;20177;-67
2022/02/08 02:44:37;;;;;;;2.50;1.80;;;;;;;4.45;50.77;101173.38;2090446;28;20268;-67
2022/02/08 02:45:37;;;;;;;3.13;1.60;;;;;;;4.30;50.97;101165.38;2090150;28;20730;-67
2022/02/08 02:46:38;;;;;;;1.90;1.50;;;;;;;4.34;51.19;101183.47;2089701;28;20183;-67
2022/02/08 02:47:39;;;;;;;4.72;2.00;;;;;;;3.40;51.49;101032.44;2090633;28;20275;-67
2022/02/08 02:48:40;;;;;;;2.77;1.60;;;;;;;3.86;51.59;101113.19;2090477;28;20184;-67
2022/02/08 02:49:40;;;;;;;2.83;1.80;;;;;;;4.34;51.22;101179.91;2090706;28;20180;-67
2022/02/08 02:50:41;;;;;;;2.87;1.60;;;;;;;4.31;51.58;101191.66;2090665;28;20173;-67
2022/02/08 02:51:42;;;;;;;3.92;1.85;;;;;;;4.29;50.94;101192.03;2090553;28;20668;-67
2022/02/08 02:52:42;;;;;;;2.97;1.80;;;;;;;4.30;51.03;101215.56;2089941;28;20581;-67
2022/02/08 02:53:43;;;;;;;6.47;2.00;;;;;;;4.34;51.41;101190.88;2090510;28;20172;-67
2022/02/08 02:54:44;;;;;;;3.93;1.83;;;;;;;4.28;51.03;101190.47;2090544;28;20658;-67
2022/02/08 02:55:44;;;;;;;2.70;1.53;;;;;;;4.31;51.20;101197.91;2090069;28;20265;-67
2022/02/08 02:56:46;;;;;;;3.03;1.80;;;;;;;4.22;51.27;101205.69;2089574;28;20219;-67
2022/02/08 02:57:51;;;;;;;2.55;1.50;;;;;;;4.29;51.10;101200.25;2090552;28;20188;-67
2022/02/08 02:58:58;;;;;;;2.67;1.70;;;;;;;4.29;51.38;101203.00;2090505;28;20238;-67
2022/02/08 03:00:10;;;;;;;2.15;1.48;;;;;;;3.82;51.44;101131.56;2090514;28;20218;-67
2022/02/08 03:01:28;;;;;;;2.30;1.67;;;;;;;4.23;51.19;101209.19;2090427;28;20243;-67
2022/02/08 03:03:12;;;;;;;2.50;1.80;;;;;;;3.46;51.38;101099.44;2090227;28;20753;-67
2022/02/08 03:04:19;;;;;;;2.95;2.03;;;;;;;4.16;51.37;101198.16;2090162;28;20192;-67
2022/02/08 03:05:52;;;;;;;2.72;1.75;;;;;;;4.24;51.18;101208.81;2089793;28;20304;-67
2022/02/08 03:18:34;;;;;;;2.72;1.63;;;;;;;3.98;52.15;101232.81;2081487;28;20165;-67
2022/02/08 03:18:52;;;;;;;3.72;1.80;;;;;;;3.97;51.89;101229.28;2077091;28;20208;-67
2022/02/08 03:19:53;;;;;;;3.80;1.73;;;;;;;3.92;51.87;101218.66;2082215;28;20165;-67
2022/02/08 03:20:53;;;;;;;3.50;1.90;;;;;;;3.87;52.15;101220.91;2082086;28;20424;-67
2022/02/08 03:21:54;;;;;;;3.57;1.70;;;;;;;3.08;52.00;101107.13;2081592;28;20205;-67
2022/02/08 03:22:54;;;;;;;3.83;1.83;;;;;;;3.91;52.16;101233.50;2082229;28;20177;-67
2022/02/08 03:23:55;;;;;;;2.80;1.63;;;;;;;3.90;52.20;101245.63;2082039;28;20173;-67
2022/02/08 03:24:56;;;;;;;2.93;1.90;;;;;;;3.88;52.29;101239.75;2082074;28;20254;-67
2022/02/08 03:25:56;;;;;;;2.70;1.73;;;;;;;3.88;52.13;101247.97;2081550;28;20226;-67
2022/02/08 03:26:58;;;;;;;2.80;1.70;;;;;;;3.58;52.44;101210.72;2081001;28;20227;-67
2022/02/08 03:27:59;;;;;;;3.40;2.17;;;;;;;3.88;52.06;101247.97;2081880;28;20184;-67
2022/02/08 03:28:59;;;;;;;2.93;1.70;;;;;;;3.90;52.10;101247.59;2081984;28;20659;-67
2022/02/08 03:30:00;;;;;;;2.60;1.63;;;;;;;3.46;51.98;101183.56;2082190;28;20177;-67
2022/02/08 03:31:00;;;;;;;3.20;1.60;;;;;;;3.88;52.20;101256.19;2082022;28;20720;-67
2022/02/08 03:32:01;;;;;;;2.67;1.73;;;;;;;3.90;52.07;101255.81;2081796;28;20177;-67
2022/02/08 03:33:02;;;;;;;3.53;1.80;;;;;;;3.80;52.16;101242.78;2081975;28;20203;-67
2022/02/08 03:34:03;;;;;;;2.43;1.70;;;;;;;3.77;52.19;101247.03;2082006;28;20281;-67
2022/02/08 03:35:05;;;;;;;3.03;1.83;;;;;;;3.89;52.20;101266.00;2081814;28;20177;-67
2022/02/08 03:36:05;;;;;;;3.58;1.60;;;;;;;3.90;51.95;101272.28;2081578;28;20231;-67
2022/02/08 03:37:06;;;;;;;2.80;1.67;;;;;;;3.89;52.03;101273.41;2081362;28;20260;-67
2022/02/08 03:38:09;;;;;;;2.67;1.67;;;;;;;3.90;52.01;101270.31;2082055;28;20540;-67
2022/02/08 03:39:15;;;;;;;4.05;1.90;;;;;;;3.89;52.42;101271.47;2081893;28;20666;-67
2022/02/08 03:40:29;;;;;;;3.38;1.90;;;;;;;3.86;52.52;101271.44;2082196;28;20623;-67
2022/02/08 03:41:39;;;;;;;2.92;1.70;;;;;;;3.87;52.57;101270.28;2082808;28;20239;-67
2022/02/08 03:42:57;;;;;;;2.97;1.67;;;;;;;3.89;52.19;101284.38;2089624;28;20166;-67
2022/02/08 03:43:57;;;;;;;2.78;1.60;;;;;;;3.83;52.33;101278.44;2090099;28;20704;-67
2022/02/08 03:44:59;;;;;;;3.30;1.80;;;;;;;3.84;52.27;101284.75;2090071;28;20670;-67
2022/02/08 03:46:07;;;;;;;3.28;1.90;;;;;;;3.89;51.92;101287.13;2089571;28;20172;-67
2022/02/08 03:47:08;;;;;;;2.75;1.75;;;;;;;3.83;52.39;101285.88;2089327;28;20189;-67
2022/02/08 03:48:10;;;;;;;2.53;1.80;;;;;;;3.86;52.00;101290.63;2090210;28;20187;-67
2022/02/08 03:49:12;;;;;;;3.08;1.75;;;;;;;3.84;52.10;101288.25;2081216;28;20204;-67
2022/02/08 03:50:13;;;;;;;2.58;1.50;;;;;;;3.83;52.14;101289.41;2082029;28;20186;-67
2022/02/08 03:51:16;;;;;;;3.00;1.83;;;;;;;3.84;51.95;101295.69;2081856;28;20260;-67
2022/02/08 03:52:18;;;;;;;2.08;1.40;;;;;;;3.88;51.84;101293.78;2081570;28;20196;-67
2022/02/08 03:53:20;;;;;;;2.83;1.95;;;;;;;3.88;51.92;101297.31;2081776;28;20165;-67
2022/02/08 03:54:20;;;;;;;3.58;1.98;;;;;;;3.86;52.14;101296.09;2081809;28;20260;-67
2022/02/08 03:55:21;;;;;;;4.03;1.83;;;;;;;3.87;51.97;101301.22;2081166;28;20177;-67
2022/02/08 03:56:23;;;;;;;3.23;1.80;;;;;;;3.83;52.19;101296.84;2080740;28;20197;-67
2022/02/08 03:57:25;;;;;;;3.90;1.67;;;;;;;3.82;52.01;101303.50;2080423;28;20185;-67
2022/02/08 03:58:26;;;;;;;3.65;2.08;;;;;;;3.82;52.52;101298.00;2082051;28;20177;-67
2022/02/08 03:59:26;;;;;;;3.53;1.90;;;;;;;3.73;51.91;101305.69;2081686;28;20179;-67
2022/02/08 04:00:31;;;;;;;2.50;1.90;;;;;;;3.81;52.58;101308.19;2081199;28;20250;-67
2022/02/08 04:02:03;;;;;;;4.15;1.75;;;;;;;3.81;52.32;101313.69;2081104;28;20177;-67
2022/02/08 04:02:59;;;;;;;3.40;2.00;;;;;;;3.78;52.14;101300.72;2081532;28;20573;-67
2022/02/08 04:04:25;;;;;;;2.47;1.88;;;;;;;3.85;51.74;101305.50;2081821;28;20173;-67
2022/02/08 04:05:31;;;;;;;5.53;1.80;;;;;;;3.84;51.64;101314.91;2081020;28;20183;-67
2022/02/08 04:06:32;;;;;;;2.85;1.92;;;;;;;3.83;52.44;101316.03;2081388;28;20161;-67
2022/02/08 04:07:41;;;;;;;3.53;2.03;;;;;;;3.82;52.70;101308.97;2081372;28;20185;-67
2022/02/08 04:08:42;;;;;;;3.33;2.20;;;;;;;3.65;52.55;101293.06;2081833;28;20549;-67
2022/02/08 04:09:43;;;;;;;4.87;2.03;;;;;;;3.77;52.74;101314.78;2081731;28;20177;-67
2022/02/08 04:10:44;;;;;;;2.40;1.77;;;;;;;3.51;51.96;101265.44;2081637;28;20169;-67
2022/02/08 04:14:18;;;;;;;3.47;1.80;;;;;;;3.71;52.02;101305.28;2081932;28;20255;-67
2022/02/08 04:16:34;;;;;;;3.33;2.03;;;;;;;3.77;51.73;101328.47;2081280;28;20203;-67
2022/02/08 04:17:56;;;;;;;2.92;1.70;;;;;;;3.73;52.54;101335.84;2081419;28;20680;-67
2022/02/08 04:34:51;;;;;;;3.30;2.07;;;;;;;3.60;52.81;101351.72;2089638;28;20184;-67
2022/02/08 04:36:10;;;;;;;4.15;2.33;;;;;;;3.71;52.47;101366.41;2089245;28;20622;-67
2022/02/08 04:38:53;;;;;;;4.28;2.60;;;;;;;3.72;52.49;101376.19;2089781;28;20214;-67
2022/02/08 04:41:06;;;;;;;3.47;2.30;;;;;;;3.74;52.21;101368.38;2089323;28;20171;-67
2022/02/08 04:42:21;;;;;;;4.93;2.42;;;;;;;3.73;51.76;101366.00;2089169;28;20196;-67
2022/02/08 04:44:43;;;;;;;3.92;2.45;;;;;;;2.92;51.83;101235.97;2089801;28;20191;-67
2022/02/08 04:45:51;;;;;;;4.95;1.88;;;;;;;2.59;52.07;101197.47;2089008;28;20248;-67
2022/02/08 04:47:06;;;;;;;5.60;2.15;;;;;;;3.70;51.73;101375.00;2088794;28;20185;-67
2022/02/08 04:48:20;;;;;;;4.82;2.15;;;;;;;3.72;52.22;101376.19;2088881;28;20177;-67
2022/02/08 04:49:20;;;;;;;3.70;2.38;;;;;;;3.30;52.33;101309.75;2080842;28;20163;-68
2022/02/08 04:50:26;;;;;;;2.70;2.00;;;;;;;3.69;52.17;101387.13;2081611;28;20180;-67
2022/02/08 04:51:36;;;;;;;3.88;2.15;;;;;;;3.69;51.90;101387.13;2081321;28;20156;-67
2022/02/08 04:52:37;;;;;;;3.20;2.10;;;;;;;3.63;51.79;101378.41;2080859;28;20168;-67
2022/02/08 04:53:44;;;;;;;3.93;2.00;;;;;;;3.70;52.11;101380.47;2081319;28;20181;-67
2022/02/08 04:56:00;;;;;;;4.33;2.33;;;;;;;2.79;52.43;101269.34;2080693;28;20195;-67
2022/02/08 04:58:23;;;;;;;3.95;2.22;;;;;;;3.72;52.11;101383.63;2081419;28;20161;-67
2022/02/08 05:01:04;;;;;;;3.85;2.20;;;;;;;3.64;51.74;101379.97;2080929;28;20623;-67
2022/02/08 05:34:48;;;;;;;3.55;2.10;;;;;;;3.61;52.08;101465.69;2089653;28;20180;-66
2022/02/08 05:42:50;;;;;;;2.90;1.77;;;;;;;3.60;52.33;101474.28;2086466;28;20566;-65
2022/02/08 05:45:08;;;;;;;4.10;1.83;;;;;;;3.55;52.61;101482.78;2083513;28;20184;-66
2022/02/08 05:47:10;;;;;;;5.23;2.00;;;;;;;3.37;52.64;101451.53;2087309;28;20270;-66
2022/02/08 05:48:16;;;;;;;2.53;1.52;;;;;;;2.73;52.51;101355.66;2092544;28;20180;-66
2022/02/08 05:49:26;;;;;;;3.47;2.00;;;;;;;3.58;52.30;101491.06;2085058;28;20762;-65
2022/02/08 05:53:58;;;;;;;4.32;1.98;;;;;;;3.55;52.65;101505.50;2088633;28;20172;-71
2022/02/08 05:54:59;;;;;;;2.77;2.00;;;;;;;2.44;53.07;101340.63;2086737;28;20203;-68
2022/02/08 05:56:00;;;;;;;4.03;1.90;;;;;;;3.55;53.12;101502.75;2087172;28;20180;-74
2022/02/08 05:57:00;;;;;;;4.63;2.27;;;;;;;3.36;52.95;101471.88;2087380;28;20206;-69
2022/02/08 05:58:02;;;;;;;3.40;1.87;;;;;;;3.61;53.01;101514.22;2086516;28;20176;-70
2022/02/08 05:59:03;;;;;;;3.80;1.95;;;;;;;3.60;52.56;101498.94;2080339;28;20577;-72
2022/02/08 06:00:05;;;;;;;3.97;2.23;;;;;;;2.57;52.82;101350.25;2080381;28;20263;-69
2022/02/08 06:01:05;;;;;;;3.35;1.90;;;;;;;3.63;52.88;101517.38;2080208;28;20524;-72
2022/02/08 06:02:06;;;;;;;2.70;1.60;;;;;;;3.73;53.02;101514.03;2078733;28;20292;-74
2022/02/08 06:03:07;;;;;;;4.33;2.00;;;;;;;3.75;53.10;101525.44;2083322;28;20188;-73
2022/02/08 06:04:10;;;;;;;3.85;1.98;;;;;;;1.73;53.16;101200.91;2080156;28;20267;-65
2022/02/08 06:05:16;;;;;;;5.95;2.10;;;;;;;3.73;52.90;101514.03;2081265;28;20179;-65
2022/02/08 06:06:19;;;;;;;3.15;2.00;;;;;;;3.72;52.61;101526.97;2081787;28;20537;-64
2022/02/08 06:07:22;;;;;;;3.67;2.40;;;;;;;3.83;52.67;101529.88;2081537;28;20177;-64
2022/02/08 06:08:23;;;;;;;3.65;2.10;;;;;;;3.86;52.78;101546.41;2081452;28;20169;-65
2022/02/08 06:09:24;;;;;;;3.27;2.00;;;;;;;3.45;52.21;101475.16;2081058;28;20185;-65
2022/02/08 06:10:25;;;;;;;3.37;2.37;;;;;;;3.82;52.59;101564.75;2072510;28;20186;-65
2022/02/08 06:11:26;;;;;;;2.70;1.92;;;;;;;3.56;52.75;101485.19;2080818;28;20172;-64
2022/02/08 06:12:27;;;;;;;3.75;2.28;;;;;;;3.66;52.41;101512.00;2082807;28;20297;-65
2022/02/08 06:13:27;;;;;;;3.60;2.00;;;;;;;3.95;52.48;101535.97;2089543;28;20177;-66
2022/02/08 06:14:29;;;;;;;3.00;2.00;;;;;;;4.01;52.26;101541.97;2088993;28;20654;-65
2022/02/08 06:15:30;;;;;;;3.33;2.00;;;;;;;4.03;52.30;101545.94;2088603;28;20177;-66
2022/02/08 06:16:32;;;;;;;3.97;2.60;;;;;;;4.04;52.16;101547.50;2088845;28;20222;-66
2022/02/08 06:17:33;;;;;;;4.90;2.90;;;;;;;3.99;52.41;101550.56;2088903;28;20181;-65
2022/02/08 06:18:33;;;;;;;4.17;2.33;;;;;;;3.21;52.58;101431.66;2089972;28;20183;-65
2022/02/08 06:19:34;;;;;;;3.97;2.40;;;;;;;3.84;52.86;101526.78;2089564;28;20570;-64
2022/02/08 06:20:34;;;;;;;4.20;2.53;;;;;;;3.97;52.70;101558.38;2089653;28;20179;-65
2022/02/08 06:21:35;;;;;;;4.73;2.70;;;;;;;3.96;52.89;101551.28;2089769;28;20230;-65
2022/02/08 06:22:36;;;;;;;4.97;2.90;;;;;;;4.04;52.44;101587.84;2089596;28;20173;-65
2022/02/08 06:23:37;;;;;;;3.78;2.30;;;;;;;4.11;52.15;101572.31;2089518;28;20275;-65
2022/02/08 06:24:37;;;;;;;4.67;2.47;;;;;;;3.90;52.55;101533.53;2089503;28;20669;-65
2022/02/08 06:25:38;;;;;;;3.73;2.53;;;;;;;4.07;52.21;101570.69;2089006;28;20180;-64
2022/02/08 06:26:39;;;;;;;4.93;3.00;;;;;;;4.11;52.25;101566.81;2088635;28;20271;-65
2022/02/08 06:27:41;;;;;;;4.20;2.63;;;;;;;4.13;52.12;101580.19;2088941;28;20195;-64
2022/02/08 06:28:42;;;;;;;5.53;3.13;;;;;;;3.86;52.72;101546.41;2088498;28;20180;-64
2022/02/08 06:29:42;;;;;;;3.45;2.50;;;;;;;3.80;52.35;101541.59;2088656;28;20192;-65
2022/02/08 06:30:46;;;;;;;4.10;2.50;;;;;;;4.17;51.88;101572.81;2088792;28;20208;-65
2022/02/08 06:31:46;;;;;;;4.82;2.47;;;;;;;4.15;52.10;101577.88;2089481;28;20184;-65
2022/02/08 06:32:47;;;;;;;3.50;2.30;;;;;;;3.78;52.05;101525.50;2089378;28;20207;-65
2022/02/08 06:33:47;;;;;;;3.27;2.50;;;;;;;4.19;52.44;101574.03;2089494;28;20184;-65
2022/02/08 06:34:48;;;;;;;3.53;2.47;;;;;;;4.22;51.84;101573.31;2089315;28;20267;-65
2022/02/08 06:35:50;;;;;;;4.00;2.43;;;;;;;3.34;52.01;101435.84;2089273;28;20737;-65
2022/02/08 06:36:59;;;;;;;3.97;2.30;;;;;;;4.31;51.53;101584.81;2087365;28;20647;-65
2022/02/08 06:38:01;;;;;;;4.68;2.33;;;;;;;4.32;51.74;101583.63;2089131;28;20168;-65